SBSV/SSA METAR and TAF weather

Enter ICAO airport designator
Station Type Date Time Source
SBSV METAR 2019/05/25 15:00 UTC NOAA

SBSV 251500Z 08012KT 9999 SCT020 29/23 Q1014


Station Type Date Time Source
SBSV Decoded METAR 2019/05/25 15:00 UTC NOAA

Salvador Aeroporto , Brazil (SBSV) 12-54S 038-20W 13M
May 25, 2019 - 11:00 AM EDT / 2019.05.25 1500 UTC
Wind: from the E (080 degrees) at 14 MPH (12 KT):0
Visibility: greater than 7 mile(s):0
Sky conditions: partly cloudy
Temperature: 84 F (29 C)
Dew Point: 73 F (23 C)
Relative Humidity: 70%
Pressure (altimeter): 29.94 in. Hg (1014 hPa)
ob: SBSV 251500Z 08012KT 9999 SCT020 29/23 Q1014
cycle: 15

Station Type Date Time Source
SBSV TAF 2019/05/25 12:42 UTC NOAA

TAF SBSV 2512/2612 09005KT 9999 SCT020 TX29/2515Z TN25/2608Z
BECMG 2515/2517 FEW020
BECMG 2518/2520 12006KT SCT020
BECMG 2522/2524 SCT020 FEW025TCU
BECMG 2601/2603 SCT020
BECMG 2604/2606 FEW 020
RMK PFF

Example: see airport list